Terminal Aerodrome Forecast
Issued by NWS Blacksburg, VA

Home | Current Version | Previous Version | Text Only | Print | Product List | Glossary On
Versions: 1 2 3 4 5 6 7 8 9 10 11 12 13 14 15 16
000
FTUS41 KRNK 310528
TAFROA
TAF
KROA 310528Z 3106/0106 31004KT 6SM BR SCT040 BKN100
     FM311000 VRB03KT 4SM BR SCT100
     FM311300 05005KT P6SM SCT120
     FM311800 08005KT P6SM BKN060
     FM312100 09006KT P6SM SCT060 BKN100=

USA.gov is the U.S. government's official web portal to all federal, state and local government web resources and services.